Salten — LMFM — position and weather

sailwx.info

Track history (hours):
 
Tides and Currents Weather Stations Pressure Air Temp Water Temp Dewpoint Dewpoint Depression Visibility Wind Speed Wind Dir Waves Ship Positions

Salten

Last reported at 2015-Aug-30 15:22 UTC. Time now 2015-Aug-31 04:49 UTC.
Position N 66°18' E 012°54'.

Length 41 m; draft 2 m.

Type: High speed craft. MMSI: 259387000.

Date/timePositionNaut miles runAvg speedWind from/ knotsBaromVisibWave heightAir tempDewpointWater temp
2015-Aug-30 15:22N 66°18' E 012°54'4013.7
2015-Aug-30 12:27N 66°55' E 013°30'1718.8
2015-Aug-30 11:33N 67°08' E 013°58'1313.2
2015-Aug-30 10:34N 67°17' E 014°22'0 0.0
2015-Aug-30 09:33N 67°17' E 014°22'0 0.0
2015-Aug-30 08:34N 67°17' E 014°22'0 0.0
2015-Aug-30 07:34N 67°17' E 014°22'0 0.0
2015-Aug-30 06:34N 67°17' E 014°22'0 0.0
2015-Aug-30 05:34N 67°17' E 014°22'0 0.0
2015-Aug-30 04:34N 67°17' E 014°22'0 0.0
2015-Aug-30 03:34N 67°17' E 014°22'0 0.0
2015-Aug-30 02:34N 67°17' E 014°22'0 0.0
2015-Aug-30 01:33N 67°17' E 014°22'0 0.0
2015-Aug-30 00:34N 67°17' E 014°22'0 0.0
2015-Aug-29 23:34N 67°17' E 014°22'0 0.0
2015-Aug-29 22:34N 67°17' E 014°22'0 0.0
2015-Aug-29 21:33N 67°17' E 014°22'0 0.0
2015-Aug-29 20:34N 67°17' E 014°22'0 0.0
2015-Aug-29 19:34N 67°17' E 014°22'0 0.0
2015-Aug-29 18:34N 67°17' E 014°22'0 0.0
2015-Aug-29 17:34N 67°17' E 014°22'0 0.0
2015-Aug-29 16:33N 67°17' E 014°22'0 0.0
2015-Aug-29 15:34N 67°17' E 014°22'0 0.0
2015-Aug-29 14:33N 67°17' E 014°22'0 0.0
2015-Aug-29 13:34N 67°17' E 014°22'0 0.0
2015-Aug-29 12:34N 67°17' E 014°22'0 0.0
2015-Aug-29 11:34N 67°17' E 014°22'0 0.0
2015-Aug-29 10:34N 67°17' E 014°22'0 0.0
2015-Aug-29 09:34N 67°17' E 014°22'0 0.4
2015-Aug-29 08:34N 67°17' E 014°23'16 1.0
2015-Aug-28 16:34N 67°31' E 014°40'1615.7
2015-Aug-28 15:34N 67°17' E 014°22'8 4.1
2015-Aug-28 13:34N 67°25' E 014°27'8 8.1
2015-Aug-28 12:33N 67°17' E 014°23'0 0.4
2015-Aug-28 11:33N 67°17' E 014°22'0 0.0
2015-Aug-28 10:33N 67°17' E 014°22'0 0.0
2015-Aug-28 09:33N 67°17' E 014°22'0 0.0
2015-Aug-28 08:33N 67°17' E 014°22'0 0.0
2015-Aug-28 07:33N 67°17' E 014°22'0 0.0
2015-Aug-28 06:33N 67°17' E 014°22'0 0.0
2015-Aug-28 05:33N 67°17' E 014°22'0 0.0
2015-Aug-28 04:33N 67°17' E 014°22'0 0.0
2015-Aug-28 03:33N 67°17' E 014°22'0 0.0
2015-Aug-28 02:33N 67°17' E 014°22'0 0.0
2015-Aug-28 01:33N 67°17' E 014°22'0 0.0
2015-Aug-28 00:33N 67°17' E 014°22'0 0.0
2015-Aug-27 23:33N 67°17' E 014°22'0 0.0
2015-Aug-27 22:33N 67°17' E 014°22'0 0.0
2015-Aug-27 21:33N 67°17' E 014°22'0 0.0
2015-Aug-27 20:33N 67°17' E 014°22'0 0.0
2015-Aug-27 19:33N 67°17' E 014°22'0 0.0
2015-Aug-27 18:33N 67°17' E 014°22'0 0.0
2015-Aug-27 17:33N 67°17' E 014°22'0 0.0
2015-Aug-27 16:33N 67°17' E 014°22'0 0.0
2015-Aug-27 15:33N 67°17' E 014°22'0 0.0
2015-Aug-27 14:33N 67°17' E 014°22'0 0.0
2015-Aug-27 13:33N 67°17' E 014°22'0 0.0
2015-Aug-27 12:33N 67°17' E 014°22'0 0.0
2015-Aug-27 11:33N 67°17' E 014°22'0 0.0
2015-Aug-27 10:33N 67°17' E 014°22'6 5.7
2015-Aug-27 09:34N 67°13' E 014°11'5116.8
2015-Aug-27 06:31N 66°31' E 012°59'10 0.8
2015-Aug-26 18:29N 66°21' E 012°59'3710.8
2015-Aug-26 15:05N 66°55' E 013°30'1527.9
2015-Aug-26 14:34N 67°06' E 013°56'1515.3
2015-Aug-26 13:33N 67°17' E 014°22'0 0.0
2015-Aug-26 12:33N 67°17' E 014°22'0 0.0
2015-Aug-26 11:33N 67°17' E 014°22'0 0.0
2015-Aug-26 10:33N 67°17' E 014°22'0 0.0
2015-Aug-26 09:33N 67°17' E 014°22'0 0.0
2015-Aug-26 08:33N 67°17' E 014°22'10 9.8
2015-Aug-26 07:34N 67°26' E 014°33'2 0.1
2015-Aug-25 15:34N 67°24' E 014°31'8 7.5
2015-Aug-25 14:33N 67°17' E 014°22'0 0.0
2015-Aug-25 13:33N 67°17' E 014°22'0 0.0
2015-Aug-25 12:33N 67°17' E 014°22'0 0.0
2015-Aug-25 11:33N 67°17' E 014°22'0 0.0
2015-Aug-25 10:33N 67°17' E 014°22'0 0.0
2015-Aug-25 09:33N 67°17' E 014°22'0 0.0
2015-Aug-25 08:33N 67°17' E 014°22'9 8.6
2015-Aug-25 07:34N 67°25' E 014°31'2 0.1
2015-Aug-24 15:34N 67°23' E 014°30'7 7.1
2015-Aug-24 14:33N 67°17' E 014°22'0 0.0
2015-Aug-24 13:33N 67°17' E 014°22'0 0.0
2015-Aug-24 12:33N 67°17' E 014°22'0 0.0
2015-Aug-24 11:33N 67°17' E 014°22'0 0.0
2015-Aug-24 10:33N 67°17' E 014°22'0 0.0
2015-Aug-24 09:33N 67°17' E 014°22'0 0.0
2015-Aug-24 08:33N 67°17' E 014°22'9 8.5
2015-Aug-24 07:34N 67°25' E 014°32'13 1.1
2015-Aug-23 19:12N 67°38' E 014°39'2132.5
2015-Aug-23 18:34N 67°18' E 014°23'1 0.9
2015-Aug-23 17:33N 67°17' E 014°22'8 0.3
2015-Aug-22 15:34N 67°24' E 014°31'7 7.5
2015-Aug-22 14:33N 67°17' E 014°22'0 0.0
2015-Aug-22 13:33N 67°17' E 014°22'0 0.0
2015-Aug-22 12:33N 67°17' E 014°22'0 0.0
2015-Aug-22 11:33N 67°17' E 014°22'0 0.0
2015-Aug-22 10:33N 67°17' E 014°22'0 0.0
2015-Aug-22 09:34N 67°17' E 014°22'0 0.4
2015-Aug-22 08:33N 67°17' E 014°23'1111.2
2015-Aug-22 07:33N 67°28' E 014°35'4 0.3
2015-Aug-21 16:33N 67°31' E 014°40'1615.6
2015-Aug-21 15:33N 67°17' E 014°22'7 3.7
2015-Aug-21 13:34N 67°24' E 014°31'7 6.9
2015-Aug-21 12:33N 67°17' E 014°23'0 0.4
2015-Aug-21 11:33N 67°17' E 014°22'0 0.0
2015-Aug-21 10:33N 67°17' E 014°22'0 0.0
2015-Aug-21 09:33N 67°17' E 014°22'0 0.0
2015-Aug-21 08:33N 67°17' E 014°22'8 8.3
2015-Aug-21 07:34N 67°25' E 014°32'1 0.0
2015-Aug-20 15:34N 67°24' E 014°31'  
Track history (hours):
 
Tides and Currents Weather Stations Pressure Air Temp Water Temp Dewpoint Dewpoint Depression Visibility Wind Speed Wind Dir Waves Ship Positions

Salten

Last reported at 2015-Aug-30 15:22 UTC. Time now 2015-Aug-31 04:49 UTC.
Position N 66°18' E 012°54'.

Length 41 m; draft 2 m.

Type: High speed craft. MMSI: 259387000.

Date/timePositionNaut miles runAvg speedWind from/ knotsBaromVisibWave heightAir tempDewpointWater temp
2015-Aug-30 15:22N 66°18' E 012°54'4013.7
2015-Aug-30 12:27N 66°55' E 013°30'1718.8
2015-Aug-30 11:33N 67°08' E 013°58'1313.2
2015-Aug-30 10:34N 67°17' E 014°22'0 0.0
2015-Aug-30 09:33N 67°17' E 014°22'0 0.0
2015-Aug-30 08:34N 67°17' E 014°22'0 0.0
2015-Aug-30 07:34N 67°17' E 014°22'0 0.0
2015-Aug-30 06:34N 67°17' E 014°22'0 0.0
2015-Aug-30 05:34N 67°17' E 014°22'0 0.0
2015-Aug-30 04:34N 67°17' E 014°22'0 0.0
2015-Aug-30 03:34N 67°17' E 014°22'0 0.0
2015-Aug-30 02:34N 67°17' E 014°22'0 0.0
2015-Aug-30 01:33N 67°17' E 014°22'0 0.0
2015-Aug-30 00:34N 67°17' E 014°22'0 0.0
2015-Aug-29 23:34N 67°17' E 014°22'0 0.0
2015-Aug-29 22:34N 67°17' E 014°22'0 0.0
2015-Aug-29 21:33N 67°17' E 014°22'0 0.0
2015-Aug-29 20:34N 67°17' E 014°22'0 0.0
2015-Aug-29 19:34N 67°17' E 014°22'0 0.0
2015-Aug-29 18:34N 67°17' E 014°22'0 0.0
2015-Aug-29 17:34N 67°17' E 014°22'0 0.0
2015-Aug-29 16:33N 67°17' E 014°22'0 0.0
2015-Aug-29 15:34N 67°17' E 014°22'0 0.0
2015-Aug-29 14:33N 67°17' E 014°22'0 0.0
2015-Aug-29 13:34N 67°17' E 014°22'0 0.0
2015-Aug-29 12:34N 67°17' E 014°22'0 0.0
2015-Aug-29 11:34N 67°17' E 014°22'0 0.0
2015-Aug-29 10:34N 67°17' E 014°22'0 0.0
2015-Aug-29 09:34N 67°17' E 014°22'0 0.4
2015-Aug-29 08:34N 67°17' E 014°23'16 1.0
2015-Aug-28 16:34N 67°31' E 014°40'1615.7
2015-Aug-28 15:34N 67°17' E 014°22'8 4.1
2015-Aug-28 13:34N 67°25' E 014°27'8 8.1
2015-Aug-28 12:33N 67°17' E 014°23'0 0.4
2015-Aug-28 11:33N 67°17' E 014°22'0 0.0
2015-Aug-28 10:33N 67°17' E 014°22'0 0.0
2015-Aug-28 09:33N 67°17' E 014°22'0 0.0
2015-Aug-28 08:33N 67°17' E 014°22'0 0.0
2015-Aug-28 07:33N 67°17' E 014°22'0 0.0
2015-Aug-28 06:33N 67°17' E 014°22'0 0.0
2015-Aug-28 05:33N 67°17' E 014°22'0 0.0
2015-Aug-28 04:33N 67°17' E 014°22'0 0.0
2015-Aug-28 03:33N 67°17' E 014°22'0 0.0
2015-Aug-28 02:33N 67°17' E 014°22'0 0.0
2015-Aug-28 01:33N 67°17' E 014°22'0 0.0
2015-Aug-28 00:33N 67°17' E 014°22'0 0.0
2015-Aug-27 23:33N 67°17' E 014°22'0 0.0
2015-Aug-27 22:33N 67°17' E 014°22'0 0.0
2015-Aug-27 21:33N 67°17' E 014°22'0 0.0
2015-Aug-27 20:33N 67°17' E 014°22'0 0.0
2015-Aug-27 19:33N 67°17' E 014°22'0 0.0
2015-Aug-27 18:33N 67°17' E 014°22'0 0.0
2015-Aug-27 17:33N 67°17' E 014°22'0 0.0
2015-Aug-27 16:33N 67°17' E 014°22'0 0.0
2015-Aug-27 15:33N 67°17' E 014°22'0 0.0
2015-Aug-27 14:33N 67°17' E 014°22'0 0.0
2015-Aug-27 13:33N 67°17' E 014°22'0 0.0
2015-Aug-27 12:33N 67°17' E 014°22'0 0.0
2015-Aug-27 11:33N 67°17' E 014°22'0 0.0
2015-Aug-27 10:33N 67°17' E 014°22'6 5.7
2015-Aug-27 09:34N 67°13' E 014°11'5116.8
2015-Aug-27 06:31N 66°31' E 012°59'10 0.8
2015-Aug-26 18:29N 66°21' E 012°59'3710.8
2015-Aug-26 15:05N 66°55' E 013°30'1527.9
2015-Aug-26 14:34N 67°06' E 013°56'1515.3
2015-Aug-26 13:33N 67°17' E 014°22'0 0.0
2015-Aug-26 12:33N 67°17' E 014°22'0 0.0
2015-Aug-26 11:33N 67°17' E 014°22'0 0.0
2015-Aug-26 10:33N 67°17' E 014°22'0 0.0
2015-Aug-26 09:33N 67°17' E 014°22'0 0.0
2015-Aug-26 08:33N 67°17' E 014°22'10 9.8
2015-Aug-26 07:34N 67°26' E 014°33'2 0.1
2015-Aug-25 15:34N 67°24' E 014°31'8 7.5
2015-Aug-25 14:33N 67°17' E 014°22'0 0.0
2015-Aug-25 13:33N 67°17' E 014°22'0 0.0
2015-Aug-25 12:33N 67°17' E 014°22'0 0.0
2015-Aug-25 11:33N 67°17' E 014°22'0 0.0
2015-Aug-25 10:33N 67°17' E 014°22'0 0.0
2015-Aug-25 09:33N 67°17' E 014°22'0 0.0
2015-Aug-25 08:33N 67°17' E 014°22'9 8.6
2015-Aug-25 07:34N 67°25' E 014°31'2 0.1
2015-Aug-24 15:34N 67°23' E 014°30'7 7.1
2015-Aug-24 14:33N 67°17' E 014°22'0 0.0
2015-Aug-24 13:33N 67°17' E 014°22'0 0.0
2015-Aug-24 12:33N 67°17' E 014°22'0 0.0
2015-Aug-24 11:33N 67°17' E 014°22'0 0.0
2015-Aug-24 10:33N 67°17' E 014°22'0 0.0
2015-Aug-24 09:33N 67°17' E 014°22'0 0.0
2015-Aug-24 08:33N 67°17' E 014°22'9 8.5
2015-Aug-24 07:34N 67°25' E 014°32'13 1.1
2015-Aug-23 19:12N 67°38' E 014°39'2132.5
2015-Aug-23 18:34N 67°18' E 014°23'1 0.9
2015-Aug-23 17:33N 67°17' E 014°22'8 0.3
2015-Aug-22 15:34N 67°24' E 014°31'7 7.5
2015-Aug-22 14:33N 67°17' E 014°22'0 0.0
2015-Aug-22 13:33N 67°17' E 014°22'0 0.0
2015-Aug-22 12:33N 67°17' E 014°22'0 0.0
2015-Aug-22 11:33N 67°17' E 014°22'0 0.0
2015-Aug-22 10:33N 67°17' E 014°22'0 0.0
2015-Aug-22 09:34N 67°17' E 014°22'0 0.4
2015-Aug-22 08:33N 67°17' E 014°23'1111.2
2015-Aug-22 07:33N 67°28' E 014°35'4 0.3
2015-Aug-21 16:33N 67°31' E 014°40'1615.6
2015-Aug-21 15:33N 67°17' E 014°22'7 3.7
2015-Aug-21 13:34N 67°24' E 014°31'7 6.9
2015-Aug-21 12:33N 67°17' E 014°23'0 0.4
2015-Aug-21 11:33N 67°17' E 014°22'0 0.0
2015-Aug-21 10:33N 67°17' E 014°22'0 0.0
2015-Aug-21 09:33N 67°17' E 014°22'0 0.0
2015-Aug-21 08:33N 67°17' E 014°22'8 8.3
2015-Aug-21 07:34N 67°25' E 014°32'1 0.0
2015-Aug-20 15:34N 67°24' E 014°31'  

Dump ship's entire track history